Time;durP1;ratioP1;P1;durP2;ratioP2;P2;SDS_P1;SDS_P2;PMS_P1;PMS_P2;Temp;Humidity;BMP_temperature;BMP_pressure;BME280_temperature;BME280_humidity;BME280_pressure;Samples;Min_cycle;Max_cycle;Signal;HPM_P1;HPM_P2
2022/11/08 00:03:43;;;;;;;13.43;6.72;;;;;;;9.50;71.99;100347.34;4988607;28;97106;-84
2022/11/08 00:14:21;;;;;;;22.23;11.00;;;;;;;9.25;72.16;100353.28;4979878;28;96790;-85
2022/11/08 00:16:46;;;;;;;24.17;12.10;;;;;;;9.06;71.97;100349.44;4981940;28;100202;-85
2022/11/08 00:19:12;;;;;;;25.05;13.07;;;;;;;9.07;71.93;100365.13;4998887;28;100736;-85
2022/11/08 00:21:37;;;;;;;15.63;8.07;;;;;;;9.06;72.29;100352.06;4965469;28;96729;-84
2022/11/08 00:24:03;;;;;;;21.35;11.50;;;;;;;8.93;72.04;100334.97;4997646;28;97047;-84
2022/11/08 00:26:28;;;;;;;24.95;10.98;;;;;;;8.88;72.06;100342.09;4968036;28;101351;-85
2022/11/08 00:28:54;;;;;;;14.35;6.72;;;;;;;9.31;71.95;100349.66;5000106;28;97580;-85
2022/11/08 00:31:20;;;;;;;13.73;8.75;;;;;;;9.37;71.81;100365.19;4964535;28;97988;-88
2022/11/08 00:33:45;;;;;;;16.00;8.10;;;;;;;9.32;71.79;100360.97;4992856;28;97561;-84
2022/11/08 00:36:11;;;;;;;17.25;7.90;;;;;;;9.25;71.83;100355.91;4978564;28;101585;-84
2022/11/08 00:38:40;;;;;;;11.93;6.38;;;;;;;9.16;71.81;100358.78;4979320;28;101184;-85
2022/11/08 00:41:06;;;;;;;16.92;9.02;;;;;;;9.12;72.29;100354.53;4990671;28;98020;-84
2022/11/08 00:43:31;;;;;;;12.20;7.35;;;;;;;9.08;72.29;100345.03;4997535;28;97093;-85
2022/11/08 00:45:57;;;;;;;12.80;7.30;;;;;;;9.01;72.04;100349.56;4983404;28;97948;-85
2022/11/08 00:48:22;;;;;;;19.20;7.25;;;;;;;9.03;72.09;100333.81;4986715;28;100487;-85
2022/11/08 00:50:48;;;;;;;13.68;6.75;;;;;;;8.90;72.22;100335.03;4993117;28;97703;-84
2022/11/08 00:53:13;;;;;;;12.80;7.60;;;;;;;9.10;72.43;100347.59;4977416;28;97374;-85
2022/11/08 00:55:39;;;;;;;13.02;7.57;;;;;;;9.18;72.27;100353.50;4975758;28;101497;-84
2022/11/08 00:58:04;;;;;;;17.38;7.30;;;;;;;9.28;71.84;100357.59;4980272;28;97789;-86
2022/11/08 01:00:30;;;;;;;11.48;6.20;;;;;;;8.99;72.55;100327.81;4965226;28;97946;-87
2022/11/08 01:05:40;;;;;;;15.07;7.18;;;;;;;9.08;72.26;100352.91;4978421;28;100965;-85
2022/11/08 01:08:06;;;;;;;17.55;9.73;;;;;;;8.82;72.49;100312.56;4993674;28;101259;-84
2022/11/08 01:10:31;;;;;;;17.52;8.95;;;;;;;8.83;71.76;100334.34;4943398;28;96736;-85
2022/11/08 01:12:57;;;;;;;17.33;10.10;;;;;;;8.95;72.28;100326.16;4961475;28;96989;-84
2022/11/08 01:15:22;;;;;;;18.35;10.15;;;;;;;8.82;71.56;100337.88;4972178;28;101102;-85
2022/11/08 01:17:48;;;;;;;15.40;10.88;;;;;;;8.91;71.68;100334.16;4965675;28;101549;-85
2022/11/08 01:20:13;;;;;;;11.63;7.63;;;;;;;8.74;71.06;100329.38;4956479;28;97453;-85
2022/11/08 01:22:39;;;;;;;16.23;8.90;;;;;;;8.67;71.17;100323.44;4969569;28;97135;-85
2022/11/08 01:25:05;;;;;;;16.00;8.90;;;;;;;8.68;71.51;100329.53;4983087;28;100749;-86
2022/11/08 01:27:30;;;;;;;14.00;8.27;;;;;;;8.63;71.97;100332.25;4984074;28;98517;-85
2022/11/08 01:29:56;;;;;;;15.73;9.27;;;;;;;8.60;71.72;100334.97;4964792;28;96869;-84
2022/11/08 01:32:21;;;;;;;19.40;12.18;;;;;;;8.58;72.29;100326.28;4989301;28;97169;-85
2022/11/08 01:34:47;;;;;;;20.60;10.70;;;;;;;8.58;72.04;100334.13;4945585;28;101333;-85
2022/11/08 01:37:12;;;;;;;18.60;11.18;;;;;;;8.57;72.00;100335.88;4957805;28;101103;-84
2022/11/08 01:39:38;;;;;;;20.35;10.05;;;;;;;8.49;71.97;100336.97;4977795;28;97406;-84
2022/11/08 01:42:04;;;;;;;15.02;10.15;;;;;;;8.47;71.60;100342.28;4963007;28;97002;-86
2022/11/08 01:44:29;;;;;;;15.43;9.63;;;;;;;8.37;72.05;100328.50;4976071;28;101351;-86
2022/11/08 01:46:55;;;;;;;14.90;10.32;;;;;;;8.31;71.65;100312.13;4960897;28;101398;-85
2022/11/08 01:49:29;;;;;;;17.60;10.35;;;;;;;8.47;72.16;100331.81;4974533;28;96744;-87
2022/11/08 01:52:31;;;;;;;16.33;9.48;;;;;;;8.30;71.79;100329.56;4971213;28;97118;-84
2022/11/08 01:55:09;;;;;;;17.52;10.25;;;;;;;8.37;71.62;100340.72;4953640;28;101804;-84
2022/11/08 01:57:36;;;;;;;18.63;10.13;;;;;;;8.37;71.08;100344.19;4989108;28;97900;-85
2022/11/08 02:00:06;;;;;;;13.13;8.85;;;;;;;8.35;71.53;100343.41;4971490;28;96714;-85
2022/11/08 02:02:34;;;;;;;17.67;10.03;;;;;;;8.35;71.75;100335.56;5009516;28;96989;-85
2022/11/08 02:05:00;;;;;;;13.48;10.23;;;;;;;8.35;71.67;100330.31;4973225;28;97902;-86
2022/11/08 02:07:27;;;;;;;18.30;11.07;;;;;;;8.39;72.02;100325.91;5008666;28;101214;-86
2022/11/08 02:09:54;;;;;;;15.85;10.93;;;;;;;8.35;71.37;100321.63;4964077;28;97723;-85
2022/11/08 02:12:21;;;;;;;17.05;11.07;;;;;;;8.34;71.01;100322.50;4998073;28;97199;-87
2022/11/08 02:14:46;;;;;;;14.77;10.40;;;;;;;8.35;71.56;100309.41;4980735;28;101345;-85
2022/11/08 02:17:13;;;;;;;16.42;9.85;;;;;;;8.27;71.31;100305.25;4979993;28;98280;-84
2022/11/08 02:19:44;;;;;;;16.27;10.00;;;;;;;8.26;71.10;100303.50;4980520;28;97159;-84
2022/11/08 02:22:29;;;;;;;15.65;10.48;;;;;;;8.10;71.02;100303.03;4994744;28;96674;-85
2022/11/08 02:24:57;;;;;;;15.25;9.50;;;;;;;8.16;71.46;100315.97;5004257;28;98739;-85
2022/11/08 02:27:22;;;;;;;17.77;9.38;;;;;;;8.04;71.38;100297.97;4990597;28;101130;-87
2022/11/08 02:29:52;;;;;;;15.80;9.50;;;;;;;8.11;72.26;100312.59;5000092;28;96774;-85
2022/11/08 02:32:18;;;;;;;15.63;8.55;;;;;;;8.26;72.06;100293.94;4983729;28;97985;-85
2022/11/08 02:34:54;;;;;;;17.38;9.55;;;;;;;8.10;71.51;100285.59;4983880;28;101032;-86
2022/11/08 02:37:20;;;;;;;14.82;9.15;;;;;;;8.17;71.35;100307.22;4979335;28;101187;-84
2022/11/08 02:39:46;;;;;;;11.82;8.40;;;;;;;7.99;71.34;100294.59;4983202;28;97355;-85
2022/11/08 02:42:20;;;;;;;14.27;9.35;;;;;;;8.09;71.07;100320.50;4972793;28;96796;-84
2022/11/08 02:44:46;;;;;;;14.85;8.25;;;;;;;8.07;71.33;100317.03;4977586;28;101196;-84
2022/11/08 02:47:11;;;;;;;15.18;8.75;;;;;;;8.04;71.01;100314.50;4978071;28;99678;-84
2022/11/08 02:49:37;;;;;;;15.27;8.48;;;;;;;8.10;71.40;100326.56;4977294;28;96990;-85
2022/11/08 02:52:03;;;;;;;16.23;8.40;;;;;;;7.97;71.29;100314.69;4991839;28;97172;-85
2022/11/08 02:54:28;;;;;;;12.45;8.05;;;;;;;7.98;71.55;100319.88;4978662;28;101933;-87
2022/11/08 02:56:54;;;;;;;13.23;8.40;;;;;;;7.98;71.50;100325.13;4965329;28;99981;-84
2022/11/08 02:59:19;;;;;;;11.77;7.78;;;;;;;7.97;71.33;100333.84;4960417;28;97861;-85
2022/11/08 03:01:45;;;;;;;15.70;7.75;;;;;;;7.97;71.51;100328.63;4971904;28;96924;-84
2022/11/08 03:04:11;;;;;;;15.25;8.52;;;;;;;7.84;71.84;100312.34;4987278;28;100941;-85
2022/11/08 03:06:36;;;;;;;11.65;7.57;;;;;;;7.96;71.09;100332.13;4962425;28;99347;-85
2022/11/08 03:09:02;;;;;;;14.90;7.28;;;;;;;7.89;71.35;100322.72;4992467;28;96707;-85
2022/11/08 03:11:28;;;;;;;12.57;7.43;;;;;;;7.84;71.41;100327.19;4958764;28;96910;-85
2022/11/08 03:13:53;;;;;;;13.75;8.02;;;;;;;7.94;71.56;100331.28;4977601;28;101035;-85
2022/11/08 03:16:19;;;;;;;13.60;6.90;;;;;;;7.86;71.33;100315.81;4978315;28;101554;-85
2022/11/08 03:18:44;;;;;;;14.80;7.28;;;;;;;7.81;71.35;100307.19;4981502;28;97147;-85
2022/11/08 03:21:10;;;;;;;15.93;7.38;;;;;;;7.83;71.37;100313.25;4991947;28;97021;-85
2022/11/08 03:23:36;;;;;;;12.05;6.43;;;;;;;7.93;71.24;100319.13;4962476;28;101348;-85
2022/11/08 03:26:02;;;;;;;18.83;7.15;;;;;;;7.90;71.17;100322.66;4993353;28;101937;-86
2022/11/08 03:28:28;;;;;;;17.00;7.50;;;;;;;7.80;71.57;100307.25;4997898;28;97467;-87
2022/11/08 03:30:53;;;;;;;15.00;7.50;;;;;;;7.85;71.38;100328.88;4974843;28;97371;-85
2022/11/08 03:33:19;;;;;;;12.65;7.40;;;;;;;7.90;71.32;100329.66;4973604;28;98544;-85
2022/11/08 03:35:47;;;;;;;10.63;7.40;;;;;;;7.91;71.47;100331.34;4973449;28;101708;-85
2022/11/08 03:38:13;;;;;;;15.98;6.88;;;;;;;7.83;71.31;100331.56;4962647;28;97766;-85
2022/11/08 03:40:38;;;;;;;15.65;6.80;;;;;;;7.79;71.31;100329.03;4974808;28;97802;-85
2022/11/08 03:43:03;;;;;;;16.58;7.00;;;;;;;7.60;71.36;100303.31;4978883;28;100720;-86
2022/11/08 03:45:29;;;;;;;14.68;7.07;;;;;;;7.66;71.17;100307.56;4974622;28;100991;-85
2022/11/08 03:47:55;;;;;;;16.63;7.32;;;;;;;7.71;71.48;100324.00;4975105;28;97782;-86
2022/11/08 03:50:20;;;;;;;18.20;7.15;;;;;;;7.68;71.39;100327.53;4974507;28;96990;-85
2022/11/08 03:52:50;;;;;;;13.82;6.53;;;;;;;7.64;71.22;100319.78;4976389;28;98020;-85
2022/11/08 03:55:17;;;;;;;14.43;7.13;;;;;;;7.53;71.49;100306.09;4972830;28;102284;-86
2022/11/08 03:57:45;;;;;;;15.18;6.97;;;;;;;7.63;71.43;100325.91;4994814;28;96961;-85
2022/11/08 04:00:12;;;;;;;16.25;6.70;;;;;;;7.59;71.39;100327.75;4972502;28;96949;-85
2022/11/08 04:02:37;;;;;;;14.00;6.65;;;;;;;7.63;71.35;100336.38;4990470;28;97506;-86
2022/11/08 04:05:04;;;;;;;10.68;6.15;;;;;;;7.68;71.64;100334.50;4990175;28;101068;-85
2022/11/08 04:07:29;;;;;;;12.43;7.43;;;;;;;7.65;72.22;100325.00;4980035;28;96833;-87
2022/11/08 04:09:55;;;;;;;11.60;7.00;;;;;;;7.57;71.89;100324.28;4986583;28;96932;-85
2022/11/08 04:15:15;;;;;;;22.85;7.32;;;;;;;7.65;71.77;100325.00;4997730;28;96703;-85
2022/11/08 04:23:15;;;;;;;16.05;7.03;;;;;;;7.56;71.43;100327.78;4995675;28;100273;-85
2022/11/08 04:25:42;;;;;;;15.70;7.25;;;;;;;7.61;71.92;100320.69;4997267;28;101688;-85
2022/11/08 04:28:07;;;;;;;12.57;7.05;;;;;;;7.55;71.92;100317.38;4998591;28;96779;-85
2022/11/08 04:30:33;;;;;;;18.08;7.30;;;;;;;7.64;71.85;100328.47;4974296;28;96851;-84
2022/11/08 04:33:00;;;;;;;16.70;7.20;;;;;;;7.66;71.83;100325.84;4975762;28;101616;-86
2022/11/08 04:35:27;;;;;;;11.98;6.80;;;;;;;7.63;71.87;100324.16;4972347;28;101227;-88
2022/11/08 04:37:57;;;;;;;14.02;6.70;;;;;;;7.47;71.10;100310.53;4967974;28;97694;-85
2022/11/08 04:40:22;;;;;;;17.88;8.02;;;;;;;7.40;71.62;100308.13;4964315;28;96748;-85
2022/11/08 04:42:48;;;;;;;16.70;7.55;;;;;;;7.49;71.63;100319.22;4998346;28;101331;-85
2022/11/08 04:45:14;;;;;;;12.30;6.82;;;;;;;7.59;71.90;100322.50;4966173;28;101764;-85
2022/11/08 04:47:39;;;;;;;15.00;7.82;;;;;;;7.54;71.72;100326.97;4988733;28;96782;-85
2022/11/08 04:50:05;;;;;;;13.13;7.43;;;;;;;7.42;71.73;100315.03;5004585;28;96986;-85
2022/11/08 04:52:30;;;;;;;15.82;7.22;;;;;;;7.47;71.57;100323.59;4971173;28;101365;-86
2022/11/08 04:54:56;;;;;;;13.23;7.22;;;;;;;7.48;71.22;100325.34;4979939;28;101722;-85
2022/11/08 04:57:22;;;;;;;18.08;7.78;;;;;;;7.40;71.69;100311.59;4991001;28;98074;-84
2022/11/08 04:59:47;;;;;;;17.60;8.55;;;;;;;7.42;71.60;100315.03;4983138;28;97213;-85
2022/11/08 05:02:13;;;;;;;14.70;8.38;;;;;;;7.56;71.37;100324.31;4983811;28;101765;-85
2022/11/08 05:04:38;;;;;;;17.38;7.95;;;;;;;7.53;71.71;100324.38;4989219;28;97873;-86
2022/11/08 05:07:04;;;;;;;25.20;8.35;;;;;;;7.48;71.55;100316.66;4980463;28;96831;-84
2022/11/08 05:09:29;;;;;;;19.02;6.63;;;;;;;7.53;71.85;100311.31;5013910;28;97152;-87
2022/11/08 05:11:55;;;;;;;14.75;7.50;;;;;;;7.47;71.74;100317.53;4988292;28;100649;-85
2022/11/08 05:14:20;;;;;;;11.88;7.32;;;;;;;7.49;72.12;100320.97;4981069;28;101429;-85
2022/11/08 05:16:46;;;;;;;14.68;7.30;;;;;;;7.36;72.46;100302.09;4991794;28;96771;-85
2022/11/08 05:19:12;;;;;;;12.00;6.75;;;;;;;7.39;72.52;100306.41;4962915;28;96912;-85
2022/11/08 05:24:21;;;;;;;20.08;6.57;;;;;;;7.32;71.75;100313.50;5003662;28;101499;-85
2022/11/08 05:26:47;;;;;;;13.80;6.80;;;;;;;7.37;72.08;100309.03;4974134;28;97455;-85
2022/11/08 05:29:14;;;;;;;16.50;6.50;;;;;;;7.43;72.24;100315.88;4971678;28;96801;-85
2022/11/08 05:31:40;;;;;;;19.95;7.60;;;;;;;7.26;72.30;100304.03;4975163;28;101491;-85
2022/11/08 05:34:06;;;;;;;24.60;6.93;;;;;;;7.01;72.03;100261.03;5001600;28;97938;-85
2022/11/08 05:36:32;;;;;;;17.50;7.30;;;;;;;7.23;71.97;100298.88;4972925;28;96812;-85
2022/11/08 05:38:58;;;;;;;15.95;6.63;;;;;;;7.28;72.13;100319.69;4957692;28;97769;-85
2022/11/08 05:41:25;;;;;;;15.63;8.02;;;;;;;7.18;72.06;100292.88;4990619;28;101025;-85
2022/11/08 05:43:52;;;;;;;15.85;8.20;;;;;;;7.29;72.24;100312.69;4985840;28;101171;-85
2022/11/08 05:46:19;;;;;;;19.67;8.77;;;;;;;7.28;72.11;100306.63;4975463;28;97089;-85
2022/11/08 05:48:45;;;;;;;20.63;9.32;;;;;;;7.23;71.65;100305.84;4979050;28;97031;-85
2022/11/08 05:51:12;;;;;;;19.02;7.88;;;;;;;7.29;72.23;100312.69;4973681;28;100295;-85
2022/11/08 05:53:38;;;;;;;21.58;7.78;;;;;;;7.32;72.02;100329.16;4971125;28;101875;-85
2022/11/08 05:56:04;;;;;;;21.42;8.88;;;;;;;7.18;72.15;100308.53;4982266;28;97016;-85
2022/11/08 05:58:32;;;;;;;18.55;7.93;;;;;;;7.28;72.29;100332.72;4994500;28;97187;-89
2022/11/08 06:01:05;;;;;;;19.90;8.63;;;;;;;7.24;72.27;100334.56;4976526;28;98097;-85
2022/11/08 06:03:31;;;;;;;25.80;8.60;;;;;;;7.27;72.10;100336.22;4988860;28;97953;-89
2022/11/08 06:06:08;;;;;;;16.75;8.50;;;;;;;7.36;72.73;100337.78;4979713;28;97063;-85
2022/11/08 06:08:34;;;;;;;30.70;11.65;;;;;;;7.34;72.33;100342.19;4980122;28;97078;-86
2022/11/08 06:11:07;;;;;;;25.10;10.90;;;;;;;7.30;71.86;100337.91;4963330;28;99727;-86
2022/11/08 06:13:33;;;;;;;21.40;10.88;;;;;;;7.33;72.14;100330.91;4976039;28;98403;-85
2022/11/08 06:16:04;;;;;;;23.42;9.65;;;;;;;7.33;72.28;100340.47;4974522;28;97233;-89
2022/11/08 06:18:30;;;;;;;23.08;10.52;;;;;;;7.37;71.85;100344.75;4993770;28;97529;-90
2022/11/08 06:21:30;;;;;;;;;;;;;;;;;;;;;
2022/11/08 06:24:03;;;;;;;24.38;11.48;;;;;;;6.86;72.24;100274.41;4997317;28;99867;-93
2022/11/08 06:26:42;;;;;;;27.70;11.75;;;;;;;6.96;72.61;100273.34;4971148;28;97070;-96
2022/11/08 06:29:28;;;;;;;33.28;11.98;;;;;;;7.02;72.43;100274.06;4979204;28;121215;-94
2022/11/08 06:32:14;;;;;;;34.67;13.68;;;;;;;7.30;72.38;100328.34;4978466;28;100345;-95
2022/11/08 06:34:50;;;;;;;37.42;15.10;;;;;;;7.08;72.31;100278.31;4994400;28;99943;-92
2022/11/08 06:37:18;;;;;;;39.42;17.73;;;;;;;7.47;72.30;100341.88;4968544;28;96726;-91
2022/11/08 06:39:44;;;;;;;36.63;16.33;;;;;;;7.46;72.96;100340.19;4986114;28;96704;-89
2022/11/08 06:42:10;;;;;;;38.58;15.38;;;;;;;7.47;72.92;100338.41;4993937;28;101298;-90
2022/11/08 06:44:36;;;;;;;26.63;14.50;;;;;;;7.38;73.19;100326.41;4977129;28;101103;-93
2022/11/08 06:47:01;;;;;;;30.80;13.60;;;;;;;7.39;73.14;100329.91;4991176;28;96736;-90
2022/11/08 06:49:27;;;;;;;29.58;12.63;;;;;;;7.41;73.40;100330.72;4964345;28;97037;-91
2022/11/08 06:51:53;;;;;;;20.63;11.90;;;;;;;7.20;73.17;100287.63;4975017;28;100832;-92
2022/11/08 06:54:19;;;;;;;20.48;11.43;;;;;;;7.45;73.61;100306.28;4971437;28;101493;-92
2022/11/08 06:56:45;;;;;;;29.02;13.20;;;;;;;7.62;72.86;100311.09;4978790;28;97878;-91
2022/11/08 06:59:10;;;;;;;47.95;30.48;;;;;;;7.68;72.50;100298.78;4972657;28;97074;-90
2022/11/08 07:01:36;;;;;;;32.08;18.60;;;;;;;7.97;72.38;100312.06;4974149;28;101435;-89
2022/11/08 07:04:05;;;;;;;28.40;15.57;;;;;;;8.39;72.63;100358.16;4971770;28;101266;-91
2022/11/08 07:06:31;;;;;;;25.45;12.43;;;;;;;8.67;71.80;100359.19;4957470;28;97432;-94
2022/11/08 07:08:57;;;;;;;29.67;14.07;;;;;;;8.65;71.00;100337.47;4973646;28;97244;-91
2022/11/08 07:11:22;;;;;;;26.92;12.10;;;;;;;8.63;71.29;100293.00;4987970;28;99720;-91
2022/11/08 07:13:48;;;;;;;22.05;11.23;;;;;;;9.33;70.52;100346.97;4995017;28;101018;-90
2022/11/08 07:16:14;;;;;;;15.10;9.10;;;;;;;9.41;69.97;100350.22;4980972;28;96971;-90
2022/11/08 07:18:40;;;;;;;20.33;10.80;;;;;;;9.25;69.92;100308.75;4996969;28;96894;-91
2022/11/08 07:21:05;;;;;;;19.40;9.95;;;;;;;9.68;69.65;100336.28;4963706;28;100265;-91
2022/11/08 07:23:31;;;;;;;20.67;10.38;;;;;;;9.83;69.66;100336.75;4959286;28;100410;-93
2022/11/08 07:26:04;;;;;;;17.38;9.70;;;;;;;10.24;68.79;100347.69;4969229;28;96947;-89
2022/11/08 07:28:30;;;;;;;20.52;9.45;;;;;;;10.36;68.48;100349.97;4965917;28;96814;-92
2022/11/08 07:31:01;;;;;;;17.85;9.07;;;;;;;10.52;68.41;100340.66;4982774;28;101363;-90
2022/11/08 07:33:27;;;;;;;16.48;8.52;;;;;;;10.77;68.24;100355.59;4995032;28;99748;-90
2022/11/08 07:35:53;;;;;;;16.90;8.85;;;;;;;10.98;67.77;100346.97;4986022;28;97962;-90
2022/11/08 07:38:19;;;;;;;16.88;8.45;;;;;;;11.07;66.82;100319.53;4991976;28;96856;-90
2022/11/08 07:40:45;;;;;;;12.98;7.65;;;;;;;11.33;66.79;100340.44;4979592;28;101288;-90
2022/11/08 07:43:10;;;;;;;16.15;7.68;;;;;;;11.47;65.99;100318.91;4980403;28;99881;-90
2022/11/08 07:45:36;;;;;;;19.48;7.60;;;;;;;11.72;65.43;100318.84;4980858;28;97033;-89
2022/11/08 07:48:04;;;;;;;20.17;9.32;;;;;;;11.59;65.59;100278.16;4989982;28;97059;-89
2022/11/08 07:50:30;;;;;;;13.40;7.10;;;;;;;11.88;64.76;100290.19;4991563;28;101158;-88
2022/11/08 07:52:57;;;;;;;16.73;7.07;;;;;;;12.20;64.15;100311.72;5003469;28;96728;-92
2022/11/08 07:55:23;;;;;;;14.05;7.07;;;;;;;12.52;64.56;100352.50;4978117;28;97198;-90
2022/11/08 07:57:55;;;;;;;10.27;5.72;;;;;;;12.24;64.28;100281.72;4990664;28;97394;-95
2022/11/08 08:00:31;;;;;;;13.57;6.57;;;;;;;12.17;64.10;100262.69;4984022;28;99903;-95
2022/11/08 08:03:28;;;;;;;;;;;;;;;;;;;;;
2022/11/08 08:06:14;;;;;;;7.68;4.68;;;;;;;13.07;63.19;100318.53;5139474;23;99080;-94
2022/11/08 08:08:40;;;;;;;7.15;4.00;;;;;;;12.93;62.84;100280.53;4925475;28;96983;-96
2022/11/08 08:11:08;;;;;;;10.15;4.28;;;;;;;13.33;62.64;100317.38;4940141;28;99979;-92
2022/11/08 08:13:34;;;;;;;10.00;4.32;;;;;;;13.39;61.87;100274.06;4902170;28;101101;-91
2022/11/08 08:16:00;;;;;;;11.43;4.65;;;;;;;13.68;61.93;100317.53;4931636;28;96787;-93
2022/11/08 08:18:30;;;;;;;7.10;3.80;;;;;;;13.99;61.24;100314.31;4913437;28;97085;-90
2022/11/08 08:20:56;;;;;;;8.75;4.00;;;;;;;14.23;60.56;100304.34;4914235;28;101488;-93
2022/11/08 08:23:24;;;;;;;8.15;4.40;;;;;;;14.25;60.55;100291.03;4902132;28;100006;-90
2022/11/08 08:25:51;;;;;;;15.07;3.83;;;;;;;14.75;59.95;100339.63;4913912;28;98063;-88
2022/11/08 08:28:17;;;;;;;10.18;4.20;;;;;;;14.57;60.72;100310.56;4903063;28;97504;-88
2022/11/08 08:30:43;;;;;;;9.65;4.30;;;;;;;14.70;60.28;100338.09;4928968;28;101750;-91
2022/11/08 08:33:12;;;;;;;8.57;3.88;;;;;;;14.64;59.49;100312.00;4934568;28;101512;-88
2022/11/08 08:35:38;;;;;;;10.45;3.88;;;;;;;14.77;59.40;100316.66;4926192;28;96766;-88
2022/11/08 08:38:05;;;;;;;7.97;3.33;;;;;;;14.65;59.69;100321.63;4902450;28;97249;-88
2022/11/08 08:40:32;;;;;;;6.32;3.20;;;;;;;14.39;59.90;100279.78;4918334;28;100468;-92
2022/11/08 08:43:02;;;;;;;5.78;3.40;;;;;;;14.18;60.07;100284.38;4937456;28;100402;-95
2022/11/08 08:45:28;;;;;;;7.68;4.13;;;;;;;14.28;61.12;100341.03;4919300;28;96852;-95
2022/11/08 08:47:56;;;;;;;10.88;3.95;;;;;;;13.95;61.64;100299.53;4919865;28;97774;-96
2022/11/08 08:50:22;;;;;;;6.90;3.35;;;;;;;14.40;61.39;100334.34;4911276;28;98481;-95
2022/11/08 08:52:48;;;;;;;11.18;4.07;;;;;;;14.49;61.41;100321.53;4906834;28;101610;-96
2022/11/08 08:55:14;;;;;;;6.18;3.22;;;;;;;14.61;60.65;100291.03;4903348;28;96844;-96
2022/11/08 08:57:46;;;;;;;12.38;4.18;;;;;;;14.76;61.20;100314.94;4935809;28;97015;-96
2022/11/08 09:00:14;;;;;;;8.27;3.70;;;;;;;15.08;59.86;100324.69;4905112;28;100455;-95
2022/11/08 09:02:42;;;;;;;9.10;3.83;;;;;;;14.69;59.58;100282.72;4907880;28;99977;-95
2022/11/08 09:05:09;;;;;;;6.68;3.00;;;;;;;15.15;59.56;100343.72;4920904;28;96794;-95
2022/11/08 09:07:34;;;;;;;7.97;3.28;;;;;;;14.84;60.29;100318.06;4919710;28;96806;-93
2022/11/08 09:10:00;;;;;;;7.50;3.58;;;;;;;14.82;60.47;100298.78;4916815;28;101366;-95
2022/11/08 09:12:26;;;;;;;11.10;4.20;;;;;;;14.81;60.21;100275.94;4925350;28;100197;-95
2022/11/08 09:14:52;;;;;;;11.63;3.78;;;;;;;15.13;59.79;100301.50;4916457;28;97291;-95
2022/11/08 09:17:18;;;;;;;7.35;3.17;;;;;;;15.65;58.99;100334.88;4926956;28;97060;-95
2022/11/08 09:19:45;;;;;;;7.25;3.28;;;;;;;15.52;58.44;100307.38;4917523;28;101446;-94
2022/11/08 09:22:11;;;;;;;7.35;3.38;;;;;;;15.72;59.15;100328.34;4920589;28;101050;-93
2022/11/08 09:24:36;;;;;;;6.88;2.90;;;;;;;15.84;58.10;100321.50;4917609;28;96923;-93
2022/11/08 09:27:02;;;;;;;7.22;3.63;;;;;;;15.62;57.93;100300.66;4908495;28;96814;-93
2022/11/08 09:29:29;;;;;;;6.70;3.72;;;;;;;15.48;58.33;100288.19;4915418;28;101757;-93
2022/11/08 09:31:55;;;;;;;9.43;3.38;;;;;;;15.50;59.18;100301.31;4917776;28;99586;-94
2022/11/08 09:34:20;;;;;;;4.72;3.08;;;;;;;15.65;59.18;100316.38;4924599;28;97624;-91
2022/11/08 09:36:47;;;;;;;6.60;3.15;;;;;;;15.57;58.48;100307.97;4900949;28;97074;-92
2022/11/08 09:39:12;;;;;;;5.25;2.80;;;;;;;15.52;58.00;100295.00;4918749;28;100890;-92
2022/11/08 09:42:04;;;;;;;7.65;2.90;;;;;;;15.88;58.09;100341.56;4915438;28;100525;-91
2022/11/08 09:45:00;;;;;;;4.35;2.40;;;;;;;15.86;58.13;100319.63;4899054;28;96945;-94
2022/11/08 09:47:47;;;;;;;4.90;2.65;;;;;;;15.97;58.47;100327.84;4913447;28;96791;-91
2022/11/08 09:50:33;;;;;;;7.38;3.13;;;;;;;16.09;57.92;100318.34;4917427;28;100732;-92
2022/11/08 09:53:17;;;;;;;7.55;3.45;;;;;;;15.96;57.79;100310.22;4927827;28;101541;-92
2022/11/08 09:55:48;;;;;;;5.97;2.65;;;;;;;15.96;58.24;100327.91;4936962;28;96726;-96
2022/11/08 09:58:16;;;;;;;6.88;3.13;;;;;;;16.07;58.25;100326.34;4902193;28;96642;-93
2022/11/08 10:00:42;;;;;;;7.72;3.30;;;;;;;15.76;58.65;100291.97;4917629;28;100486;-93
2022/11/08 10:03:15;;;;;;;9.20;2.97;;;;;;;15.66;58.77;100278.38;4908435;28;101220;-86
2022/11/08 10:05:46;;;;;;;8.55;3.63;;;;;;;16.13;57.98;100303.13;4911407;28;96810;-87
2022/11/08 10:08:33;;;;;;;10.10;2.80;;;;;;;16.38;56.86;100287.53;4902411;28;97000;-87
2022/11/08 10:11:02;;;;;;;8.25;2.92;;;;;;;16.52;57.38;100299.94;4923989;28;101857;-86
2022/11/08 10:13:33;;;;;;;7.72;3.20;;;;;;;16.32;57.17;100314.38;4928836;28;98195;-83
2022/11/08 10:16:05;;;;;;;8.27;3.83;;;;;;;15.93;58.14;100289.22;4913520;28;97300;-83
2022/11/08 10:18:33;;;;;;;6.72;3.10;;;;;;;15.77;58.84;100297.19;4916934;28;96858;-83
2022/11/08 10:21:08;;;;;;;7.05;3.20;;;;;;;15.84;59.08;100306.47;4929596;28;101341;-83
2022/11/08 10:23:45;;;;;;;7.03;2.38;;;;;;;15.78;59.17;100305.97;4913291;28;100689;-82
2022/11/08 10:26:17;;;;;;;6.88;2.65;;;;;;;15.98;58.79;100303.06;4915528;28;96874;-83
2022/11/08 10:28:49;;;;;;;4.13;2.20;;;;;;;15.96;58.18;100296.97;4913720;28;97406;-84
2022/11/08 10:31:17;;;;;;;6.13;2.47;;;;;;;15.82;59.02;100296.91;4935094;28;100935;-83
2022/11/08 10:33:52;;;;;;;5.05;2.63;;;;;;;15.86;58.76;100285.22;4919738;28;100402;-83
2022/11/08 10:36:23;;;;;;;6.60;2.42;;;;;;;15.86;59.45;100297.63;4915462;28;96750;-83
2022/11/08 10:38:56;;;;;;;10.63;3.13;;;;;;;15.82;59.80;100288.97;4917896;28;97292;-83
2022/11/08 10:41:59;;;;;;;6.93;2.35;;;;;;;15.93;60.21;100283.91;4918472;28;101751;-83
2022/11/08 10:44:25;;;;;;;5.78;2.40;;;;;;;15.99;58.51;100264.19;4924956;28;101064;-83
2022/11/08 10:46:58;;;;;;;7.18;2.45;;;;;;;16.00;58.27;100268.56;4930804;28;96860;-84
2022/11/08 10:49:37;;;;;;;4.85;2.40;;;;;;;15.83;58.80;100269.53;4916573;28;97457;-83
2022/11/08 10:52:37;;;;;;;4.47;2.33;;;;;;;15.82;59.44;100263.38;4902665;28;101680;-83
2022/11/08 10:55:06;;;;;;;5.82;2.58;;;;;;;16.10;58.64;100259.13;4933427;28;101566;-86
2022/11/08 10:57:31;;;;;;;6.97;2.88;;;;;;;16.00;59.69;100265.91;4924917;28;97203;-83
2022/11/08 11:00:14;;;;;;;6.05;2.42;;;;;;;16.01;59.43;100254.38;4932712;28;96884;-83
2022/11/08 11:02:40;;;;;;;9.35;2.78;;;;;;;16.04;59.03;100256.84;4930647;28;97544;-83
2022/11/08 11:05:14;;;;;;;10.65;2.67;;;;;;;16.03;58.46;100252.50;4912274;28;101012;-83
2022/11/08 11:07:43;;;;;;;5.68;2.20;;;;;;;15.96;58.47;100251.97;4934412;28;97051;-90
2022/11/08 11:10:21;;;;;;;12.35;3.20;;;;;;;15.83;58.66;100237.75;4934888;28;96953;-89
2022/11/08 11:12:59;;;;;;;9.70;3.40;;;;;;;15.99;58.84;100241.22;4919830;28;101559;-90
2022/11/08 11:15:33;;;;;;;4.97;2.58;;;;;;;15.94;58.80;100245.94;4937708;28;100111;-88
2022/11/08 11:17:59;;;;;;;4.13;2.35;;;;;;;15.92;58.69;100226.63;4920181;28;97016;-89
2022/11/08 11:20:25;;;;;;;7.82;2.58;;;;;;;15.91;58.85;100239.94;4916991;28;97201;-86
2022/11/08 11:22:52;;;;;;;5.00;2.47;;;;;;;15.94;58.88;100239.78;4924775;28;101962;-85
2022/11/08 11:25:22;;;;;;;10.40;3.00;;;;;;;15.83;59.51;100240.41;4920640;28;100305;-92
2022/11/08 11:28:11;;;;;;;6.95;3.10;;;;;;;15.51;59.94;100194.56;4924415;28;96886;-88
2022/11/08 11:30:40;;;;;;;4.53;2.50;;;;;;;15.88;59.03;100243.63;4921085;28;96827;-88
2022/11/08 11:33:26;;;;;;;8.00;2.40;;;;;;;15.78;59.63;100237.16;4903613;28;101502;-88
2022/11/08 11:36:00;;;;;;;4.95;2.80;;;;;;;15.69;59.18;100209.44;4920248;28;101551;-88
2022/11/08 11:38:45;;;;;;;4.60;2.70;;;;;;;15.86;58.98;100240.22;4921105;28;96980;-86
2022/11/08 11:41:40;;;;;;;6.18;2.78;;;;;;;15.83;59.15;100240.41;4930617;28;96862;-88
2022/11/08 11:44:21;;;;;;;7.00;2.30;;;;;;;15.62;59.35;100206.25;4896706;28;101636;-88
2022/11/08 11:46:59;;;;;;;7.63;2.42;;;;;;;15.70;59.41;100208.47;4919021;28;100195;-87
2022/11/08 11:49:27;;;;;;;5.65;2.45;;;;;;;15.90;59.03;100222.38;4914974;28;96790;-87
2022/11/08 11:51:54;;;;;;;6.90;2.40;;;;;;;15.95;59.09;100213.22;4922043;28;97044;-87
2022/11/08 11:54:26;;;;;;;9.98;3.03;;;;;;;16.05;58.71;100216.19;4926290;28;100592;-87